• °C
  • Pobieranie danych...
wx


PRINT OUT SECTION, show »

TAF EPRA 270200Z NIL=

TAF EPSY 271130Z 2712/2721 30008KT 9999 BKN014
TEMPO 2712/2716 -RASN BKN007 OVC014
PROB40 TEMPO 2717/2721 2000 BR OVC004=

TAF EPZG 271130Z 2712/2721 11005KT CAVOK=



IMGW-PIB Sites